createdAt,value
2018-12-09T00:02:02.839Z,15.15
2018-12-09T00:04:39.541Z,15.20
2018-12-09T00:07:20.901Z,15.25
2018-12-09T00:09:54.958Z,14.99
2018-12-09T00:12:30.151Z,14.78
2018-12-09T00:15:04.455Z,14.84
2018-12-09T00:17:38.034Z,14.53
2018-12-09T00:20:12.950Z,14.56
2018-12-09T00:22:47.601Z,14.35
2018-12-09T00:25:25.558Z,14.25
2018-12-09T00:28:03.540Z,13.97
2018-12-09T00:30:37.312Z,13.65
2018-12-09T00:33:11.792Z,14.31
2018-12-09T00:35:47.168Z,14.09
2018-12-09T00:38:28.362Z,14.13
2018-12-09T00:41:02.946Z,13.98
2018-12-09T00:43:41.071Z,13.60
2018-12-09T00:46:18.648Z,13.85
2018-12-09T00:49:00.191Z,13.75
2018-12-09T00:51:33.135Z,13.91
2018-12-09T00:54:07.325Z,13.77
2018-12-09T00:56:41.347Z,13.20
2018-12-09T00:59:17.302Z,14.38
2018-12-09T01:01:52.225Z,14.61
2018-12-09T01:04:25.263Z,14.61
2018-12-09T01:07:01.194Z,13.67
2018-12-09T01:09:36.586Z,14.58
2018-12-09T01:12:10.290Z,14.29
2018-12-09T01:14:45.771Z,14.33
2018-12-09T01:17:24.881Z,14.32
2018-12-09T01:20:05.481Z,14.18
2018-12-09T01:22:37.431Z,14.35
2018-12-09T01:25:15.349Z,14.48
2018-12-09T01:27:53.440Z,14.65
2018-12-09T01:30:31.050Z,14.49
2018-12-09T01:33:08.232Z,14.69
2018-12-09T01:35:48.716Z,14.40
2018-12-09T01:38:23.616Z,14.78
2018-12-09T01:41:00.710Z,14.72
2018-12-09T01:43:38.559Z,14.94
2018-12-09T01:46:13.654Z,14.71
2018-12-09T01:48:50.807Z,14.77
2018-12-09T01:51:26.211Z,14.96
2018-12-09T01:54:31.030Z,14.65
2018-12-09T01:57:08.741Z,14.43
2018-12-09T01:59:42.699Z,13.82
2018-12-09T02:02:19.993Z,13.89
2018-12-09T02:04:59.297Z,14.00
2018-12-09T02:07:32.580Z,14.21
2018-12-09T02:10:08.020Z,14.00
2018-12-09T02:12:41.995Z,13.91
2018-12-09T02:15:24.801Z,14.00
2018-12-09T02:17:57.983Z,13.62
2018-12-09T02:20:31.495Z,13.79
2018-12-09T02:23:10.003Z,14.19
2018-12-09T02:25:45.339Z,14.13
2018-12-09T02:28:23.105Z,14.28
2018-12-09T02:30:58.007Z,14.09
2018-12-09T02:33:32.955Z,13.96
2018-12-09T02:36:05.344Z,13.86
2018-12-09T02:38:40.752Z,13.95
2018-12-09T02:41:20.213Z,13.85
2018-12-09T02:43:58.756Z,14.60
2018-12-09T02:46:45.105Z,13.89
2018-12-09T02:49:17.843Z,14.42
2018-12-09T02:51:51.265Z,14.69
2018-12-09T02:54:25.926Z,14.54
2018-12-09T02:57:01.273Z,14.21
2018-12-09T02:59:36.481Z,14.25
2018-12-09T03:02:12.974Z,14.25
2018-12-09T03:04:46.483Z,14.42
2018-12-09T03:10:01.165Z,14.24
2018-12-09T03:12:33.972Z,14.13
2018-12-09T03:15:15.925Z,13.98
2018-12-09T03:17:52.118Z,13.99
2018-12-09T03:20:26.845Z,14.00
2018-12-09T03:23:03.633Z,13.95
2018-12-09T03:25:39.244Z,13.48
2018-12-09T03:28:19.382Z,13.44
2018-12-09T03:30:53.762Z,13.69
2018-12-09T03:33:28.797Z,13.86
2018-12-09T03:36:05.370Z,13.93
2018-12-09T03:38:38.788Z,14.03
2018-12-09T03:41:14.281Z,13.94
2018-12-09T03:43:47.503Z,13.66
2018-12-09T03:46:19.594Z,13.88
2018-12-09T03:48:51.878Z,14.06
2018-12-09T03:51:27.111Z,14.29
2018-12-09T03:54:03.336Z,14.30
2018-12-09T03:56:34.457Z,14.25
2018-12-09T03:59:07.619Z,14.38
2018-12-09T04:01:39.953Z,14.35
2018-12-09T04:04:15.672Z,14.21
2018-12-09T04:06:54.357Z,14.15
2018-12-09T04:09:28.609Z,14.19
2018-12-09T04:12:03.455Z,13.62
2018-12-09T04:14:43.424Z,14.41
2018-12-09T04:17:16.238Z,14.35
2018-12-09T04:19:52.943Z,14.09
2018-12-09T04:22:27.430Z,13.80
2018-12-09T04:25:04.272Z,13.17
2018-12-09T04:27:39.703Z,13.35
2018-12-09T04:30:18.533Z,13.12
2018-12-09T04:32:51.077Z,13.13
2018-12-09T04:35:25.173Z,13.21
2018-12-09T04:38:03.023Z,13.35
2018-12-09T04:40:38.373Z,13.06
2018-12-09T04:43:17.148Z,13.44
2018-12-09T04:45:54.232Z,13.59
2018-12-09T04:48:34.215Z,13.54
2018-12-09T04:51:08.518Z,13.33
2018-12-09T04:53:45.866Z,13.26
2018-12-09T04:56:19.215Z,13.50
2018-12-09T04:59:04.033Z,13.65
2018-12-09T05:01:38.266Z,13.68
2018-12-09T05:04:15.437Z,13.81
2018-12-09T05:06:47.832Z,13.73
2018-12-09T05:09:23.173Z,13.55
2018-12-09T05:11:58.620Z,12.77
2018-12-09T05:14:37.970Z,13.58
2018-12-09T05:17:14.208Z,13.59
2018-12-09T05:19:53.051Z,13.37
2018-12-09T05:22:28.198Z,13.18
2018-12-09T05:25:03.881Z,13.23
2018-12-09T05:27:40.481Z,13.09
2018-12-09T05:30:16.627Z,13.24
2018-12-09T05:32:52.879Z,13.12
2018-12-09T05:35:31.953Z,13.31
2018-12-09T05:38:07.375Z,13.46
2018-12-09T05:40:48.813Z,13.46
2018-12-09T05:43:22.116Z,13.29
2018-12-09T05:46:02.893Z,13.11
2018-12-09T05:48:37.622Z,13.20
2018-12-09T05:51:14.695Z,13.07
2018-12-09T05:53:48.614Z,13.19
2018-12-09T05:56:25.016Z,13.27
2018-12-09T05:59:00.207Z,13.09
2018-12-09T06:01:35.610Z,12.72
2018-12-09T06:04:09.469Z,12.79
2018-12-09T06:06:40.617Z,12.91
2018-12-09T06:09:14.976Z,12.77
2018-12-09T06:11:49.639Z,12.77
2018-12-09T06:14:22.909Z,12.74
2018-12-09T06:17:01.543Z,12.65
2018-12-09T06:19:34.922Z,12.87
2018-12-09T06:22:07.379Z,12.76
2018-12-09T06:24:40.358Z,12.57
2018-12-09T06:27:14.431Z,12.43
2018-12-09T06:29:50.337Z,12.75
2018-12-09T06:32:24.081Z,12.64
2018-12-09T06:35:02.291Z,12.38
2018-12-09T06:37:38.801Z,12.46
2018-12-09T06:40:20.208Z,12.34
2018-12-09T06:42:59.869Z,12.57
2018-12-09T06:45:33.024Z,12.70
2018-12-09T06:48:13.844Z,12.83
2018-12-09T06:50:50.532Z,12.97
2018-12-09T06:53:27.443Z,13.09
2018-12-09T06:56:02.585Z,12.37
2018-12-09T06:58:41.337Z,11.71
2018-12-09T07:01:16.574Z,12.63
2018-12-09T07:03:54.022Z,13.02
2018-12-09T07:06:28.334Z,12.93
2018-12-09T07:09:05.497Z,12.56
2018-12-09T07:11:40.617Z,12.64
2018-12-09T07:16:55.859Z,12.23
2018-12-09T07:19:32.673Z,12.79
2018-12-09T07:22:09.502Z,12.52
2018-12-09T07:24:48.331Z,12.39
2018-12-09T07:27:21.745Z,12.46
2018-12-09T07:30:02.299Z,12.40
2018-12-09T07:32:32.902Z,12.37
2018-12-09T07:35:11.051Z,12.30
2018-12-09T07:37:53.183Z,12.34
2018-12-09T07:40:36.407Z,12.33
2018-12-09T07:43:13.520Z,12.26
2018-12-09T07:45:51.204Z,12.32
2018-12-09T07:48:27.790Z,12.36
2018-12-09T07:50:59.361Z,12.23
2018-12-09T07:53:35.843Z,12.49
2018-12-09T07:56:14.084Z,12.51
2018-12-09T07:58:49.094Z,12.50
2018-12-09T08:01:23.927Z,12.76
2018-12-09T08:03:59.018Z,12.76
2018-12-09T08:06:34.967Z,12.85
2018-12-09T08:09:10.862Z,12.81
2018-12-09T08:11:50.786Z,12.70
2018-12-09T08:14:25.397Z,12.66
2018-12-09T08:17:04.316Z,12.71
2018-12-09T08:19:37.823Z,12.58
2018-12-09T08:22:14.816Z,12.30
2018-12-09T08:24:50.706Z,12.50
2018-12-09T08:27:28.689Z,12.57
2018-12-09T08:30:05.737Z,12.43
2018-12-09T08:32:38.552Z,12.61
2018-12-09T08:35:17.462Z,12.69
2018-12-09T08:37:51.909Z,12.67
2018-12-09T08:40:35.922Z,12.85
2018-12-09T08:43:10.268Z,12.88
2018-12-09T08:45:47.752Z,13.25
2018-12-09T08:48:22.497Z,13.09
2018-12-09T08:50:59.497Z,13.32
2018-12-09T08:53:34.862Z,13.35
2018-12-09T08:56:13.211Z,13.58
2018-12-09T08:58:48.526Z,13.68
2018-12-09T09:01:26.397Z,13.60
2018-12-09T09:07:23.745Z,13.55
2018-12-09T09:09:59.474Z,14.03
2018-12-09T09:12:37.526Z,14.17
2018-12-09T09:15:16.498Z,14.39
2018-12-09T09:17:50.752Z,14.29
2018-12-09T09:20:29.597Z,14.42
2018-12-09T09:23:10.747Z,14.24
2018-12-09T09:25:49.957Z,14.25
2018-12-09T09:28:23.718Z,14.32
2018-12-09T09:31:01.664Z,14.54
2018-12-09T09:33:38.951Z,14.62
2018-12-09T09:36:14.684Z,14.29
2018-12-09T09:38:52.617Z,14.43
2018-12-09T09:41:32.066Z,14.82
2018-12-09T09:44:06.971Z,14.96
2018-12-09T09:46:43.945Z,14.83
2018-12-09T09:49:20.982Z,14.81
2018-12-09T09:51:53.830Z,14.71
2018-12-09T09:54:33.994Z,14.47
2018-12-09T09:57:08.619Z,14.78
2018-12-09T09:59:48.886Z,14.83
2018-12-09T10:02:24.179Z,14.97
2018-12-09T10:05:00.565Z,15.01
2018-12-09T10:07:42.511Z,15.03
2018-12-09T10:13:07.274Z,14.29
2018-12-09T10:15:49.357Z,14.30
2018-12-09T10:18:26.303Z,14.38
2018-12-09T10:21:01.503Z,14.53
2018-12-09T10:23:39.720Z,14.78
2018-12-09T10:26:18.249Z,15.01
2018-12-09T10:28:55.151Z,15.10
2018-12-09T10:31:32.444Z,14.97
2018-12-09T10:34:08.759Z,15.15
2018-12-09T10:36:41.645Z,14.89
2018-12-09T10:39:24.311Z,14.74
2018-12-09T10:42:01.359Z,14.84
2018-12-09T10:44:37.485Z,14.64
2018-12-09T10:47:17.973Z,14.35
2018-12-09T10:49:53.441Z,14.54
2018-12-09T10:52:28.030Z,14.52
2018-12-09T10:55:06.215Z,14.49
2018-12-09T10:57:41.301Z,14.49
2018-12-09T11:00:29.635Z,14.64
2018-12-09T11:03:09.720Z,14.46
2018-12-09T11:05:49.544Z,14.56
2018-12-09T11:08:35.684Z,14.70
2018-12-09T11:11:10.405Z,14.09
2018-12-09T11:13:42.813Z,14.40
2018-12-09T11:16:22.561Z,14.65
2018-12-09T11:19:02.038Z,14.58
2018-12-09T11:21:44.358Z,14.75
2018-12-09T11:24:18.182Z,14.97
2018-12-09T11:26:54.302Z,15.10
2018-12-09T11:32:14.367Z,15.43
2018-12-09T11:34:52.724Z,15.57
2018-12-09T11:40:11.774Z,15.58
2018-12-09T11:42:49.076Z,15.61
2018-12-09T11:45:28.772Z,15.46
2018-12-09T11:48:05.432Z,15.30
2018-12-09T11:50:44.990Z,15.63
2018-12-09T11:53:20.208Z,15.50
2018-12-09T11:55:57.396Z,15.16
2018-12-09T11:58:36.644Z,14.92
2018-12-09T12:01:16.633Z,14.50
2018-12-09T12:03:51.080Z,14.50
2018-12-09T12:06:23.006Z,14.68
2018-12-09T12:08:59.280Z,14.64
2018-12-09T12:11:38.435Z,14.46
2018-12-09T12:14:12.824Z,14.80
2018-12-09T12:16:49.330Z,15.08
2018-12-09T12:19:27.410Z,15.42
2018-12-09T12:22:12.605Z,15.55
2018-12-09T12:24:51.056Z,16.04
2018-12-09T12:27:28.489Z,16.39
2018-12-09T12:30:03.871Z,16.44
2018-12-09T12:35:27.373Z,16.66
2018-12-09T12:38:07.229Z,16.69
2018-12-09T12:40:43.723Z,16.95
2018-12-09T12:43:20.801Z,17.16
2018-12-09T12:45:55.769Z,17.49
2018-12-09T12:48:36.634Z,17.77
2018-12-09T12:51:11.537Z,17.79
2018-12-09T12:53:49.209Z,17.50
2018-12-09T12:56:25.581Z,17.08
2018-12-09T12:59:04.431Z,17.82
2018-12-09T13:01:39.372Z,17.43
2018-12-09T13:04:14.173Z,17.37
2018-12-09T13:06:50.750Z,17.36
2018-12-09T13:09:25.612Z,17.39
2018-12-09T13:12:03.497Z,17.10
2018-12-09T13:14:42.259Z,17.53
2018-12-09T13:17:19.777Z,17.29
2018-12-09T13:19:56.566Z,16.85
2018-12-09T13:22:34.815Z,16.31
2018-12-09T13:25:11.761Z,15.11
2018-12-09T13:27:47.163Z,15.29
2018-12-09T13:30:33.237Z,14.77
2018-12-09T13:33:05.378Z,14.67
2018-12-09T13:35:40.404Z,14.50
2018-12-09T13:38:16.313Z,14.30
2018-12-09T13:40:56.959Z,14.35
2018-12-09T13:43:34.748Z,14.36
2018-12-09T13:46:06.738Z,14.14
2018-12-09T13:48:42.870Z,14.30
2018-12-09T13:51:34.615Z,14.32
2018-12-09T13:54:09.554Z,14.03
2018-12-09T13:56:44.034Z,14.08
2018-12-09T13:59:19.089Z,14.00
2018-12-09T14:01:53.702Z,13.24
2018-12-09T14:04:31.644Z,13.25
2018-12-09T14:07:07.238Z,13.94
2018-12-09T14:09:46.296Z,14.01
2018-12-09T14:12:24.842Z,14.32
2018-12-09T14:15:04.153Z,14.29
2018-12-09T14:17:42.145Z,14.47
2018-12-09T14:20:24.573Z,14.48
2018-12-09T14:23:06.261Z,14.82
2018-12-09T14:25:45.488Z,14.64
2018-12-09T14:28:21.332Z,14.76
2018-12-09T14:31:02.823Z,14.71
2018-12-09T14:37:41.398Z,14.77
2018-12-09T14:40:17.624Z,15.11
2018-12-09T14:42:57.055Z,15.36
2018-12-09T14:45:33.113Z,15.30
2018-12-09T14:48:12.469Z,15.10
2018-12-09T14:50:51.230Z,15.30
2018-12-09T14:53:26.630Z,15.41
2018-12-09T14:56:04.442Z,15.57
2018-12-09T14:58:41.871Z,15.58
2018-12-09T15:04:01.250Z,15.44
2018-12-09T15:06:38.103Z,15.31
2018-12-09T15:09:16.402Z,15.93
2018-12-09T15:11:57.398Z,15.84
2018-12-09T15:14:42.030Z,15.85
2018-12-09T15:17:16.443Z,16.00
2018-12-09T15:19:51.484Z,16.07
2018-12-09T15:22:27.521Z,16.14
2018-12-09T15:25:07.106Z,15.88
2018-12-09T15:27:40.752Z,15.77
2018-12-09T15:30:24.289Z,15.72
2018-12-09T15:33:01.273Z,15.72
2018-12-09T15:35:38.066Z,15.77
2018-12-09T15:38:12.752Z,15.64
2018-12-09T15:40:49.041Z,15.76
2018-12-09T15:43:26.221Z,15.82
2018-12-09T15:46:02.734Z,15.79
2018-12-09T15:48:38.503Z,15.82
2018-12-09T15:51:16.191Z,15.66
2018-12-09T15:53:51.680Z,15.86
2018-12-09T15:56:28.879Z,15.76
2018-12-09T15:59:04.552Z,15.83
2018-12-09T16:01:39.398Z,15.43
2018-12-09T16:04:17.034Z,15.51
2018-12-09T16:06:52.709Z,15.39
2018-12-09T16:09:26.367Z,15.25
2018-12-09T16:12:03.633Z,15.19
2018-12-09T16:14:42.151Z,15.12
2018-12-09T16:17:19.375Z,15.13
2018-12-09T16:19:54.932Z,14.99
2018-12-09T16:22:32.471Z,15.06
2018-12-09T16:25:08.222Z,15.00
2018-12-09T16:30:26.677Z,15.21
2018-12-09T16:33:05.290Z,14.97
2018-12-09T16:35:39.629Z,15.06
2018-12-09T16:38:13.667Z,15.27
2018-12-09T16:40:51.848Z,15.07
2018-12-09T16:43:30.655Z,15.21
2018-12-09T16:46:10.189Z,15.08
2018-12-09T16:48:49.313Z,15.25
2018-12-09T16:51:25.647Z,15.25
2018-12-09T16:54:01.306Z,15.46
2018-12-09T16:56:39.706Z,15.19
2018-12-09T16:59:18.515Z,15.29
2018-12-09T17:01:53.405Z,15.18
2018-12-09T17:04:27.409Z,15.33
2018-12-09T17:07:03.843Z,15.16
2018-12-09T17:15:25.297Z,15.18
2018-12-09T17:18:00.572Z,15.32
2018-12-09T17:20:37.843Z,15.19
2018-12-09T17:23:15.274Z,14.99
2018-12-09T17:25:49.344Z,15.40
2018-12-09T17:28:23.680Z,15.44
2018-12-09T17:33:38.627Z,15.21
2018-12-09T17:36:13.425Z,14.95
2018-12-09T17:38:52.741Z,15.11
2018-12-09T17:41:34.329Z,14.99
2018-12-09T17:44:09.437Z,14.93
2018-12-09T17:46:45.569Z,14.90
2018-12-09T17:49:18.623Z,14.88
2018-12-09T17:51:55.184Z,14.67
2018-12-09T17:54:32.418Z,14.86
2018-12-09T17:57:06.745Z,14.81
2018-12-09T17:59:42.781Z,14.89
2018-12-09T18:02:18.269Z,14.19
2018-12-09T18:04:51.311Z,14.28
2018-12-09T18:07:28.621Z,14.32
2018-12-09T18:10:11.423Z,14.49
2018-12-09T18:12:53.742Z,14.34
2018-12-09T18:18:17.655Z,14.30
2018-12-09T18:20:54.499Z,14.52
2018-12-09T18:23:30.631Z,14.66
2018-12-09T18:26:09.239Z,14.62
2018-12-09T18:28:43.411Z,14.67
2018-12-09T18:31:21.538Z,15.00
2018-12-09T18:33:57.854Z,14.96
2018-12-09T18:36:32.901Z,14.94
2018-12-09T18:39:12.210Z,14.93
2018-12-09T18:41:46.357Z,15.01
2018-12-09T18:44:24.744Z,14.86
2018-12-09T18:47:05.256Z,14.90
2018-12-09T18:49:41.511Z,14.85
2018-12-09T18:52:18.312Z,14.80
2018-12-09T18:54:57.731Z,14.74
2018-12-09T18:57:31.760Z,14.76
2018-12-09T19:00:12.921Z,14.88
2018-12-09T19:02:47.382Z,14.92
2018-12-09T19:05:23.551Z,14.92
2018-12-09T19:08:07.738Z,15.15
2018-12-09T19:10:46.164Z,14.91
2018-12-09T19:13:21.467Z,14.55
2018-12-09T19:15:59.226Z,14.58
2018-12-09T19:18:40.426Z,14.60
2018-12-09T19:21:14.103Z,14.77
2018-12-09T19:23:53.023Z,14.96
2018-12-09T19:26:27.966Z,14.91
2018-12-09T19:29:05.410Z,14.85
2018-12-09T19:31:39.858Z,14.78
2018-12-09T19:34:18.709Z,14.86
2018-12-09T19:36:53.986Z,14.93
2018-12-09T19:39:29.895Z,14.90
2018-12-09T19:42:04.755Z,14.78
2018-12-09T19:44:44.292Z,14.73
2018-12-09T19:47:21.623Z,15.00
2018-12-09T19:50:01.739Z,14.63
2018-12-09T19:52:47.407Z,14.95
2018-12-09T19:55:24.923Z,15.07
2018-12-09T19:58:04.531Z,15.06
2018-12-09T20:03:21.722Z,14.98
2018-12-09T20:06:00.305Z,14.69
2018-12-09T20:08:36.997Z,14.67
2018-12-09T20:11:13.222Z,14.69
2018-12-09T20:13:49.705Z,14.67
2018-12-09T20:16:23.040Z,14.65
2018-12-09T20:19:00.482Z,14.33
2018-12-09T20:21:37.717Z,14.37
2018-12-09T20:24:15.317Z,14.45
2018-12-09T20:26:50.789Z,14.39
2018-12-09T20:29:32.281Z,14.36
2018-12-09T20:32:08.169Z,14.48
2018-12-09T20:34:45.502Z,14.60
2018-12-09T20:37:26.673Z,14.82
2018-12-09T20:40:02.408Z,14.82
2018-12-09T20:42:48.023Z,14.67
2018-12-09T20:45:36.308Z,14.54
2018-12-09T20:48:20.258Z,14.67
2018-12-09T20:51:00.346Z,14.82
2018-12-09T20:53:43.301Z,14.91
2018-12-09T20:56:19.470Z,14.96
2018-12-09T20:58:59.509Z,14.94
2018-12-09T21:01:38.793Z,14.50
2018-12-09T21:04:14.946Z,14.30
2018-12-09T21:06:51.947Z,14.37
2018-12-09T21:09:28.444Z,14.13
2018-12-09T21:12:01.523Z,14.24
2018-12-09T21:17:23.132Z,14.23
2018-12-09T21:20:01.057Z,14.31
2018-12-09T21:22:41.861Z,14.32
2018-12-09T21:25:15.802Z,14.30
2018-12-09T21:27:51.342Z,14.38
2018-12-09T21:30:39.227Z,14.34
2018-12-09T21:33:17.163Z,14.52
2018-12-09T21:35:51.939Z,14.53
2018-12-09T21:38:33.332Z,14.67
2018-12-09T21:41:08.471Z,14.77
2018-12-09T21:43:44.015Z,14.84
2018-12-09T21:46:25.595Z,14.68
2018-12-09T21:51:42.480Z,14.42
2018-12-09T21:54:20.363Z,14.32
2018-12-09T21:59:39.990Z,14.38
2018-12-09T22:02:15.625Z,14.52
2018-12-09T22:04:54.248Z,14.56
2018-12-09T22:10:15.669Z,14.50
2018-12-09T22:12:51.987Z,14.59
2018-12-09T22:15:28.829Z,14.57
2018-12-09T22:18:03.726Z,14.80
2018-12-09T22:20:39.654Z,14.84
2018-12-09T22:23:13.226Z,14.81
2018-12-09T22:25:56.547Z,14.79
2018-12-09T22:28:30.281Z,14.84
2018-12-09T22:31:04.600Z,14.77
2018-12-09T22:33:38.968Z,14.70
2018-12-09T22:36:14.501Z,14.70
2018-12-09T22:38:49.464Z,14.59
2018-12-09T22:41:23.401Z,14.76
2018-12-09T22:43:59.421Z,14.87
2018-12-09T22:46:33.667Z,14.92
2018-12-09T22:49:10.416Z,14.70
2018-12-09T22:51:43.315Z,14.89
2018-12-09T22:54:18.136Z,14.61
2018-12-09T22:56:54.605Z,14.64
2018-12-09T22:59:33.602Z,14.58
2018-12-09T23:02:12.498Z,14.54
2018-12-09T23:04:53.791Z,14.48
2018-12-09T23:08:03.184Z,14.37
2018-12-09T23:14:34.900Z,13.70
2018-12-09T23:17:08.986Z,14.09
2018-12-09T23:19:48.774Z,14.15
2018-12-09T23:22:26.597Z,14.22
2018-12-09T23:25:06.798Z,14.23
2018-12-09T23:27:41.169Z,14.19
2018-12-09T23:30:24.521Z,13.87
2018-12-09T23:33:04.314Z,13.53
2018-12-09T23:35:47.297Z,13.51
2018-12-09T23:38:24.955Z,13.58
2018-12-09T23:41:01.704Z,13.69
2018-12-09T23:43:39.281Z,13.57
2018-12-09T23:46:17.326Z,13.67
2018-12-09T23:48:51.097Z,13.71
2018-12-09T23:51:24.685Z,13.76
2018-12-09T23:54:01.332Z,14.05
2018-12-09T23:56:36.455Z,13.93
2018-12-09T23:59:11.049Z,13.97
